createdAt,value
2022-12-24T00:00:25.525Z,73.89
2022-12-24T00:05:25.418Z,74.05
2022-12-24T00:10:25.337Z,74.20
2022-12-24T00:15:25.257Z,74.24
2022-12-24T00:20:25.224Z,74.33
2022-12-24T00:25:25.436Z,74.41
2022-12-24T00:30:25.082Z,74.47
2022-12-24T00:35:25.007Z,74.48
2022-12-24T00:40:24.920Z,74.55
2022-12-24T00:45:25.350Z,74.68
2022-12-24T00:50:24.788Z,74.78
2022-12-24T00:55:24.729Z,74.85
2022-12-24T01:00:24.706Z,74.93
2022-12-24T01:05:44.346Z,74.98
2022-12-24T01:10:36.335Z,74.96
2022-12-24T01:15:36.620Z,75.01
2022-12-24T01:20:36.223Z,75.06
2022-12-24T01:25:36.167Z,75.15
2022-12-24T01:30:36.419Z,75.20
2022-12-24T01:35:36.201Z,75.17
2022-12-24T01:40:36.627Z,75.18
2022-12-24T01:45:35.899Z,75.21
2022-12-24T01:50:35.833Z,75.16
2022-12-24T01:55:37.204Z,75.14
2022-12-24T02:00:35.730Z,75.16
2022-12-24T02:05:35.629Z,75.23
2022-12-24T02:10:35.557Z,75.30
2022-12-24T02:15:36.193Z,75.35
2022-12-24T02:20:36.149Z,75.35
2022-12-24T02:25:35.929Z,75.35
2022-12-24T02:30:35.302Z,75.40
2022-12-24T02:35:35.221Z,75.44
2022-12-24T02:40:35.551Z,75.50
2022-12-24T02:45:35.100Z,75.51
2022-12-24T02:50:35.014Z,75.47
2022-12-24T02:55:34.986Z,75.50
2022-12-24T03:00:34.978Z,75.56
2022-12-24T03:05:35.325Z,75.59
2022-12-24T03:10:34.759Z,75.56
2022-12-24T03:15:34.761Z,75.57
2022-12-24T03:20:34.605Z,75.60
2022-12-24T03:25:35.029Z,75.63
2022-12-24T03:30:34.466Z,75.66
2022-12-24T03:35:34.435Z,75.66
2022-12-24T03:40:34.360Z,75.62
2022-12-24T03:45:34.778Z,75.61
2022-12-24T03:50:35.153Z,75.58
2022-12-24T03:55:34.184Z,75.62
2022-12-24T04:00:34.116Z,75.69
2022-12-24T04:05:34.954Z,75.68
2022-12-24T04:10:33.980Z,75.73
2022-12-24T04:15:33.893Z,75.76
2022-12-24T04:20:34.522Z,75.82
2022-12-24T04:25:33.785Z,75.84
2022-12-24T04:30:33.815Z,75.87
2022-12-24T04:35:33.626Z,75.89
2022-12-24T04:40:33.890Z,75.91
2022-12-24T04:45:33.592Z,75.99
2022-12-24T04:50:33.464Z,75.98
2022-12-24T04:55:33.396Z,76.00
2022-12-24T05:00:33.400Z,76.02
2022-12-24T05:05:33.197Z,76.04
2022-12-24T05:10:33.159Z,76.08
2022-12-24T05:15:47.657Z,76.07
2022-12-24T05:20:40.061Z,76.06
2022-12-24T05:25:40.015Z,76.12
2022-12-24T05:30:39.993Z,76.16
2022-12-24T05:35:39.861Z,76.16
2022-12-24T05:40:39.794Z,76.21
2022-12-24T05:45:39.728Z,76.21
2022-12-24T05:50:39.643Z,76.25
2022-12-24T05:55:40.092Z,76.32
2022-12-24T06:00:40.214Z,76.37
2022-12-24T06:05:40.150Z,76.43
2022-12-24T06:10:39.389Z,76.49
2022-12-24T06:15:40.030Z,76.53
2022-12-24T06:20:39.256Z,76.58
2022-12-24T06:25:39.201Z,76.64
2022-12-24T06:30:39.797Z,76.68
2022-12-24T06:35:39.064Z,76.71
2022-12-24T06:40:39.026Z,76.76
2022-12-24T06:45:38.945Z,76.83
2022-12-24T06:50:38.864Z,76.89
2022-12-24T06:55:38.801Z,76.93
2022-12-24T07:00:38.699Z,76.94
2022-12-24T07:05:38.650Z,76.95
2022-12-24T07:10:38.612Z,76.98
2022-12-24T07:15:38.525Z,77.01
2022-12-24T07:20:38.419Z,77.02
2022-12-24T07:25:38.391Z,77.04
2022-12-24T07:30:38.309Z,77.05
2022-12-24T07:35:38.262Z,77.03
2022-12-24T07:40:38.175Z,77.00
2022-12-24T07:45:38.124Z,76.95
2022-12-24T07:50:38.041Z,76.89
2022-12-24T07:55:38.000Z,76.85
2022-12-24T08:00:37.940Z,76.87
2022-12-24T08:05:37.847Z,76.74
2022-12-24T08:10:37.765Z,76.55
2022-12-24T08:15:37.738Z,75.90
2022-12-24T08:20:37.673Z,74.80
2022-12-24T08:25:37.675Z,74.68
2022-12-24T08:30:37.509Z,74.79
2022-12-24T08:35:37.462Z,75.01
2022-12-24T08:40:37.371Z,74.88
2022-12-24T08:45:40.668Z,70.55
2022-12-24T08:50:37.228Z,68.38
2022-12-24T08:55:37.170Z,67.32
2022-12-24T09:00:37.125Z,66.30
2022-12-24T09:05:37.072Z,65.70
2022-12-24T09:10:36.980Z,64.76
2022-12-24T09:15:36.933Z,67.97
2022-12-24T09:20:36.828Z,66.29
2022-12-24T09:25:36.741Z,68.53
2022-12-24T09:30:36.689Z,69.50
2022-12-24T09:35:36.636Z,67.33
2022-12-24T09:40:36.527Z,67.90
2022-12-24T09:45:36.519Z,68.59
2022-12-24T09:50:36.435Z,69.25
2022-12-24T09:55:36.367Z,69.35
2022-12-24T10:00:36.283Z,68.41
2022-12-24T10:05:36.274Z,68.86
2022-12-24T10:10:36.166Z,69.34
2022-12-24T10:15:36.080Z,69.50
2022-12-24T10:20:36.020Z,69.28
2022-12-24T10:25:35.957Z,67.69
2022-12-24T10:30:35.932Z,65.36
2022-12-24T10:35:35.895Z,65.62
2022-12-24T10:40:35.830Z,66.62
2022-12-24T10:45:35.665Z,68.22
2022-12-24T10:50:35.639Z,69.13
2022-12-24T10:55:35.575Z,69.20
2022-12-24T11:00:36.597Z,69.15
2022-12-24T11:05:35.970Z,69.03
2022-12-24T11:10:35.584Z,67.63
2022-12-24T11:15:35.324Z,67.73
2022-12-24T11:20:35.199Z,68.25
2022-12-24T11:25:35.195Z,68.85
2022-12-24T11:30:35.134Z,69.40
2022-12-24T11:35:35.008Z,69.86
2022-12-24T11:40:34.929Z,70.09
2022-12-24T11:45:34.883Z,70.12
2022-12-24T11:50:34.795Z,70.02
2022-12-24T11:55:34.746Z,70.11
2022-12-24T12:00:34.660Z,69.83
2022-12-24T12:05:34.618Z,69.76
2022-12-24T12:10:34.523Z,69.57
2022-12-24T12:15:34.493Z,69.19
2022-12-24T12:20:34.402Z,69.17
2022-12-24T12:25:34.329Z,69.26
2022-12-24T12:30:34.253Z,69.44
2022-12-24T12:35:34.204Z,69.91
2022-12-24T12:40:34.184Z,69.63
2022-12-24T12:45:34.111Z,69.61
2022-12-24T12:50:34.012Z,69.15
2022-12-24T12:55:34.006Z,68.26
2022-12-24T13:00:33.906Z,68.61
2022-12-24T13:05:33.797Z,68.80
2022-12-24T13:10:33.739Z,68.79
2022-12-24T13:15:33.670Z,68.45
2022-12-24T13:20:33.575Z,67.97
2022-12-24T13:25:33.549Z,67.99
2022-12-24T13:30:33.478Z,68.65
2022-12-24T13:35:37.460Z,68.56
2022-12-24T13:40:34.306Z,68.44
2022-12-24T13:45:33.320Z,68.42
2022-12-24T13:50:33.172Z,68.95
2022-12-24T13:55:33.129Z,69.41
2022-12-24T14:00:33.091Z,69.57
2022-12-24T14:05:32.971Z,69.63
2022-12-24T14:10:32.895Z,69.31
2022-12-24T14:15:32.853Z,69.28
2022-12-24T14:20:32.776Z,69.52
2022-12-24T14:25:32.765Z,70.07
2022-12-24T14:30:32.658Z,70.20
2022-12-24T14:35:32.559Z,70.22
2022-12-24T14:40:33.424Z,70.56
2022-12-24T14:45:32.479Z,70.86
2022-12-24T14:50:32.382Z,71.15
2022-12-24T14:55:32.369Z,71.38
2022-12-24T15:00:36.030Z,71.42
2022-12-24T15:05:33.187Z,71.44
2022-12-24T15:10:32.085Z,71.48
2022-12-24T15:15:32.101Z,71.58
2022-12-24T15:20:31.964Z,71.68
2022-12-24T15:25:31.934Z,71.77
2022-12-24T15:30:31.916Z,71.90
2022-12-24T15:35:31.753Z,71.99
2022-12-24T15:40:31.676Z,72.09
2022-12-24T15:45:31.646Z,72.16
2022-12-24T15:50:31.534Z,72.28
2022-12-24T15:55:31.520Z,72.40
2022-12-24T16:00:31.411Z,72.52
2022-12-24T16:05:31.362Z,72.61
2022-12-24T16:10:31.259Z,72.69
2022-12-24T16:15:31.308Z,72.71
2022-12-24T16:20:31.153Z,72.77
2022-12-24T16:25:31.111Z,72.88
2022-12-24T16:30:31.024Z,72.92
2022-12-24T16:35:30.946Z,73.04
2022-12-24T16:40:30.866Z,73.17
2022-12-24T16:45:30.823Z,73.25
2022-12-24T16:50:30.722Z,73.33
2022-12-24T16:55:30.781Z,73.41
2022-12-24T17:00:30.640Z,73.53
2022-12-24T17:05:30.562Z,73.62
2022-12-24T17:10:30.459Z,73.71
2022-12-24T17:15:30.466Z,73.75
2022-12-24T17:20:30.340Z,73.82
2022-12-24T17:25:30.282Z,73.91
2022-12-24T17:30:30.207Z,73.99
2022-12-24T17:35:30.139Z,74.07
2022-12-24T17:40:30.065Z,74.13
2022-12-24T17:45:30.045Z,74.19
2022-12-24T17:50:30.080Z,74.25
2022-12-24T17:55:29.869Z,74.27
2022-12-24T18:00:33.187Z,74.32
2022-12-24T18:05:30.032Z,74.33
2022-12-24T18:10:29.673Z,74.29
2022-12-24T18:15:29.607Z,74.27
2022-12-24T18:20:29.517Z,74.27
2022-12-24T18:25:29.477Z,74.26
2022-12-24T18:30:29.419Z,74.26
2022-12-24T18:35:29.323Z,74.29
2022-12-24T18:40:29.299Z,74.33
2022-12-24T18:45:29.246Z,74.36
2022-12-24T18:50:29.133Z,74.39
2022-12-24T18:55:29.096Z,74.40
2022-12-24T19:00:29.035Z,74.43
2022-12-24T19:05:28.950Z,74.49
2022-12-24T19:10:28.861Z,74.52
2022-12-24T19:15:33.882Z,74.56
2022-12-24T19:20:29.757Z,74.57
2022-12-24T19:25:28.680Z,74.59
2022-12-24T19:30:28.574Z,74.66
2022-12-24T19:35:28.549Z,74.72
2022-12-24T19:40:28.457Z,74.77
2022-12-24T19:45:28.508Z,74.81
2022-12-24T19:50:28.308Z,74.81
2022-12-24T19:55:28.271Z,74.85
2022-12-24T20:00:28.195Z,74.87
2022-12-24T20:05:28.134Z,74.89
2022-12-24T20:10:28.075Z,74.91
2022-12-24T20:15:28.013Z,74.93
2022-12-24T20:20:27.922Z,74.93
2022-12-24T20:25:27.876Z,74.96
2022-12-24T20:30:27.779Z,75.00
2022-12-24T20:35:27.721Z,75.05
2022-12-24T20:40:27.656Z,75.05
2022-12-24T20:45:27.720Z,75.06
2022-12-24T20:50:27.532Z,75.05
2022-12-24T20:55:27.475Z,75.05
2022-12-24T21:00:27.375Z,75.08
2022-12-24T21:05:27.352Z,75.07
2022-12-24T21:10:33.880Z,75.09
2022-12-24T21:15:28.359Z,75.15
2022-12-24T21:20:27.117Z,75.15
2022-12-24T21:25:27.061Z,75.15
2022-12-24T21:30:26.967Z,75.18
2022-12-24T21:35:26.913Z,75.19
2022-12-24T21:40:26.835Z,75.21
2022-12-24T21:45:26.769Z,75.23
2022-12-24T21:50:31.696Z,75.28
2022-12-24T21:55:27.669Z,75.30
2022-12-24T22:00:26.585Z,75.30
2022-12-24T22:05:26.517Z,75.33
2022-12-24T22:10:26.425Z,75.33
2022-12-24T22:15:26.387Z,75.33
2022-12-24T22:20:26.287Z,75.36
2022-12-24T22:25:26.233Z,75.38
2022-12-24T22:30:26.194Z,75.39
2022-12-24T22:35:26.110Z,75.41
2022-12-24T22:40:26.045Z,75.40
2022-12-24T22:45:25.997Z,75.41
2022-12-24T22:50:25.877Z,75.44
2022-12-24T22:55:25.854Z,75.41
2022-12-24T23:00:25.768Z,75.42
2022-12-24T23:05:25.725Z,75.43
2022-12-24T23:10:25.683Z,75.43
2022-12-24T23:15:25.604Z,75.48
2022-12-24T23:20:25.482Z,75.49
2022-12-24T23:25:25.451Z,75.51
2022-12-24T23:30:25.382Z,75.53
2022-12-24T23:35:26.732Z,75.53
2022-12-24T23:40:25.226Z,75.53
2022-12-24T23:45:25.189Z,75.52
2022-12-24T23:50:25.222Z,75.54
2022-12-24T23:55:25.046Z,75.56
